createdAt,value
2023-02-25T00:00:33.669Z,59.89
2023-02-25T00:03:00.289Z,59.91
2023-02-25T00:05:27.172Z,60.11
2023-02-25T00:07:53.786Z,60.19
2023-02-25T00:10:19.954Z,60.28
2023-02-25T00:12:46.149Z,60.38
2023-02-25T00:15:12.859Z,60.23
2023-02-25T00:17:39.323Z,60.40
2023-02-25T00:20:09.213Z,60.53
2023-02-25T00:22:36.232Z,60.33
2023-02-25T00:25:02.670Z,60.47
2023-02-25T00:27:28.742Z,60.56
2023-02-25T00:29:54.921Z,60.55
2023-02-25T00:32:22.443Z,60.55
2023-02-25T00:34:48.775Z,60.58
2023-02-25T00:37:15.077Z,60.47
2023-02-25T00:39:44.117Z,60.49
2023-02-25T00:42:15.110Z,60.47
2023-02-25T00:44:49.840Z,60.40
2023-02-25T00:47:18.834Z,60.23
2023-02-25T00:49:47.850Z,60.19
2023-02-25T00:52:15.473Z,60.19
2023-02-25T00:54:41.761Z,60.00
2023-02-25T00:57:08.068Z,60.09
2023-02-25T00:59:35.362Z,60.16
2023-02-25T01:02:01.392Z,60.06
2023-02-25T01:04:27.509Z,60.03
2023-02-25T01:06:53.962Z,60.04
2023-02-25T01:09:20.138Z,60.15
2023-02-25T01:11:47.988Z,60.10
2023-02-25T01:14:18.221Z,60.13
2023-02-25T01:16:45.882Z,60.01
2023-02-25T01:19:21.128Z,60.11
2023-02-25T01:21:49.717Z,60.14
2023-02-25T01:24:22.261Z,60.19
2023-02-25T01:26:50.503Z,60.26
2023-02-25T01:29:19.496Z,60.16
2023-02-25T01:31:46.783Z,60.27
2023-02-25T01:34:15.820Z,60.31
2023-02-25T01:36:42.560Z,60.22
2023-02-25T01:39:10.237Z,60.17
2023-02-25T01:41:37.512Z,60.23
2023-02-25T01:44:12.324Z,60.05
2023-02-25T01:46:41.024Z,59.98
2023-02-25T01:49:32.893Z,59.98
2023-02-25T01:52:10.767Z,60.05
2023-02-25T01:54:37.977Z,59.90
2023-02-25T01:57:10.274Z,59.98
2023-02-25T01:59:37.032Z,59.98
2023-02-25T02:02:03.389Z,59.97
2023-02-25T02:04:31.057Z,59.85
2023-02-25T02:06:57.849Z,59.75
2023-02-25T02:09:26.844Z,59.51
2023-02-25T02:11:53.054Z,59.61
2023-02-25T02:14:28.580Z,59.84
2023-02-25T02:17:36.583Z,59.81
2023-02-25T02:20:14.757Z,59.81
2023-02-25T02:23:09.070Z,59.76
2023-02-25T02:25:52.158Z,59.56
2023-02-25T02:28:18.162Z,59.73
2023-02-25T02:31:09.020Z,59.80
2023-02-25T02:34:01.994Z,59.78
2023-02-25T02:36:43.225Z,59.75
2023-02-25T02:39:34.075Z,59.86
2023-02-25T02:42:16.029Z,59.69
2023-02-25T02:45:01.135Z,59.51
2023-02-25T02:47:42.006Z,59.46
2023-02-25T02:50:30.204Z,59.21
2023-02-25T02:53:01.203Z,59.49
2023-02-25T02:55:53.274Z,59.56
2023-02-25T02:58:27.219Z,59.61
2023-02-25T03:01:23.677Z,59.47
2023-02-25T03:03:59.218Z,59.25
2023-02-25T03:06:32.471Z,59.41
2023-02-25T03:09:05.323Z,59.46
2023-02-25T03:11:34.241Z,59.48
2023-02-25T03:14:00.414Z,59.26
2023-02-25T03:16:40.319Z,59.14
2023-02-25T03:19:12.921Z,58.97
2023-02-25T03:21:43.364Z,58.88
2023-02-25T03:24:21.617Z,58.94
2023-02-25T03:26:52.476Z,58.98
2023-02-25T03:29:22.749Z,59.01
2023-02-25T03:32:01.029Z,58.99
2023-02-25T03:34:32.913Z,59.33
2023-02-25T03:37:08.425Z,59.42
2023-02-25T03:39:39.678Z,59.62
2023-02-25T03:42:11.783Z,59.85
2023-02-25T03:44:41.095Z,60.04
2023-02-25T03:47:10.226Z,60.13
2023-02-25T03:49:45.741Z,60.10
2023-02-25T03:52:17.303Z,60.07
2023-02-25T03:54:50.816Z,60.30
2023-02-25T03:57:17.466Z,60.42
2023-02-25T03:59:43.722Z,60.35
2023-02-25T04:02:12.153Z,60.36
2023-02-25T04:04:38.292Z,60.49
2023-02-25T04:07:04.601Z,60.52
2023-02-25T04:09:30.666Z,60.50
2023-02-25T04:11:56.789Z,60.44
2023-02-25T04:14:24.132Z,60.19
2023-02-25T04:16:50.183Z,60.19
2023-02-25T04:19:16.337Z,60.13
2023-02-25T04:21:42.466Z,60.17
2023-02-25T04:24:09.736Z,60.24
2023-02-25T04:26:36.016Z,60.08
2023-02-25T04:29:03.226Z,60.27
2023-02-25T04:31:29.394Z,60.34
2023-02-25T04:33:57.450Z,60.37
2023-02-25T04:36:30.890Z,60.42
2023-02-25T04:38:58.915Z,60.46
2023-02-25T04:41:29.598Z,60.41
2023-02-25T04:43:56.013Z,60.62
2023-02-25T04:46:22.422Z,60.57
2023-02-25T04:48:48.646Z,60.76
2023-02-25T04:51:15.278Z,60.86
2023-02-25T04:53:41.439Z,60.82
2023-02-25T04:56:09.344Z,60.93
2023-02-25T04:58:36.520Z,60.75
2023-02-25T05:01:05.430Z,60.98
2023-02-25T05:03:32.840Z,61.23
2023-02-25T05:05:59.129Z,61.38
2023-02-25T05:08:25.795Z,61.43
2023-02-25T05:10:51.903Z,61.33
2023-02-25T05:13:19.370Z,61.45
2023-02-25T05:15:45.450Z,61.51
2023-02-25T05:18:11.613Z,61.38
2023-02-25T05:20:41.665Z,61.39
2023-02-25T05:23:08.313Z,61.39
2023-02-25T05:25:34.620Z,61.42
2023-02-25T05:28:01.185Z,61.43
2023-02-25T05:30:27.337Z,61.27
2023-02-25T05:32:54.034Z,61.13
2023-02-25T05:35:20.061Z,60.96
2023-02-25T05:37:46.130Z,60.72
2023-02-25T05:40:13.354Z,60.34
2023-02-25T05:42:39.668Z,60.43
2023-02-25T05:45:08.347Z,60.34
2023-02-25T05:47:35.224Z,60.16
2023-02-25T05:50:02.083Z,60.03
2023-02-25T05:52:28.170Z,60.32
2023-02-25T05:54:54.275Z,60.33
2023-02-25T05:57:23.191Z,60.58
2023-02-25T05:59:49.774Z,60.79
2023-02-25T06:02:15.812Z,60.69
2023-02-25T06:04:41.930Z,60.75
2023-02-25T06:07:08.010Z,61.01
2023-02-25T06:09:34.140Z,61.04
2023-02-25T06:12:00.424Z,61.06
2023-02-25T06:14:26.782Z,60.95
2023-02-25T06:16:56.169Z,60.92
2023-02-25T06:19:25.660Z,61.28
2023-02-25T06:21:54.985Z,61.36
2023-02-25T06:24:22.380Z,61.38
2023-02-25T06:26:48.537Z,61.08
2023-02-25T06:32:05.773Z,60.99
2023-02-25T06:34:32.068Z,61.18
2023-02-25T06:36:58.849Z,61.22
2023-02-25T06:39:24.979Z,60.87
2023-02-25T06:41:51.182Z,60.58
2023-02-25T06:44:17.425Z,60.35
2023-02-25T06:46:43.735Z,60.43
2023-02-25T06:49:10.733Z,60.24
2023-02-25T06:51:36.786Z,60.04
2023-02-25T06:54:03.998Z,59.89
2023-02-25T06:56:30.269Z,59.82
2023-02-25T06:58:58.565Z,59.75
2023-02-25T07:01:25.929Z,59.54
2023-02-25T07:03:52.611Z,59.72
2023-02-25T07:06:19.234Z,59.24
2023-02-25T07:08:45.797Z,58.62
2023-02-25T07:11:17.712Z,57.69
2023-02-25T07:13:46.087Z,57.35
2023-02-25T07:16:14.299Z,57.07
2023-02-25T07:18:41.310Z,56.63
2023-02-25T07:21:07.738Z,56.06
2023-02-25T07:23:33.970Z,55.93
2023-02-25T07:26:04.282Z,55.94
2023-02-25T07:28:30.858Z,55.64
2023-02-25T07:31:03.374Z,55.70
2023-02-25T07:33:30.421Z,55.56
2023-02-25T07:35:57.926Z,55.16
2023-02-25T07:38:24.236Z,54.99
2023-02-25T07:40:50.380Z,54.83
2023-02-25T07:43:16.462Z,54.82
2023-02-25T07:45:42.691Z,54.47
2023-02-25T07:48:09.225Z,54.39
2023-02-25T07:50:35.815Z,54.41
2023-02-25T07:53:02.172Z,53.93
2023-02-25T07:55:28.300Z,53.85
2023-02-25T07:57:54.413Z,53.83
2023-02-25T08:00:20.604Z,53.25
2023-02-25T08:02:46.813Z,52.54
2023-02-25T08:05:13.133Z,51.69
2023-02-25T08:07:39.279Z,51.52
2023-02-25T08:10:05.652Z,50.92
2023-02-25T08:12:31.863Z,50.51
2023-02-25T08:15:01.261Z,50.06
2023-02-25T08:17:31.863Z,49.50
2023-02-25T08:19:57.957Z,49.35
2023-02-25T08:22:24.086Z,49.36
2023-02-25T08:24:51.022Z,48.69
2023-02-25T08:27:17.131Z,48.52
2023-02-25T08:29:43.180Z,48.58
2023-02-25T08:32:09.423Z,48.37
2023-02-25T08:34:35.641Z,48.04
2023-02-25T08:37:01.883Z,47.75
2023-02-25T08:39:28.615Z,47.47
2023-02-25T08:41:54.666Z,47.37
2023-02-25T08:44:20.763Z,47.44
2023-02-25T08:46:47.515Z,47.32
2023-02-25T08:49:13.674Z,47.29
2023-02-25T08:51:40.231Z,47.36
2023-02-25T08:54:08.850Z,47.38
2023-02-25T08:56:36.526Z,47.31
2023-02-25T08:59:03.679Z,47.43
2023-02-25T09:01:43.918Z,47.42
2023-02-25T09:04:14.646Z,47.64
2023-02-25T09:06:40.797Z,47.86
2023-02-25T09:09:07.112Z,48.03
2023-02-25T09:11:33.297Z,48.15
2023-02-25T09:13:59.521Z,48.37
2023-02-25T09:16:28.252Z,48.41
2023-02-25T09:18:54.558Z,48.67
2023-02-25T09:21:21.236Z,48.66
2023-02-25T09:23:50.656Z,48.81
2023-02-25T09:26:18.549Z,48.94
2023-02-25T09:28:45.437Z,48.94
2023-02-25T09:31:11.766Z,48.93
2023-02-25T09:33:38.475Z,49.22
2023-02-25T09:36:15.166Z,49.28
2023-02-25T09:38:42.541Z,49.42
2023-02-25T09:41:32.799Z,49.17
2023-02-25T09:44:11.285Z,49.23
2023-02-25T09:46:43.981Z,49.36
2023-02-25T09:49:18.401Z,49.21
2023-02-25T09:51:50.157Z,49.01
2023-02-25T09:54:34.116Z,48.80
2023-02-25T09:57:03.933Z,48.81
2023-02-25T09:59:30.549Z,48.82
2023-02-25T10:02:13.188Z,48.91
2023-02-25T10:04:51.704Z,48.84
2023-02-25T10:07:28.791Z,48.84
2023-02-25T10:10:04.376Z,48.93
2023-02-25T10:12:38.694Z,48.98
2023-02-25T10:15:07.771Z,49.16
2023-02-25T10:17:56.088Z,49.29
2023-02-25T10:20:38.705Z,49.28
2023-02-25T10:23:27.148Z,49.38
2023-02-25T10:26:00.067Z,49.32
2023-02-25T10:28:29.129Z,48.88
2023-02-25T10:31:03.214Z,48.65
2023-02-25T10:33:39.653Z,48.64
2023-02-25T10:36:14.817Z,48.55
2023-02-25T10:38:46.768Z,48.37
2023-02-25T10:41:13.433Z,48.01
2023-02-25T10:43:40.114Z,47.49
2023-02-25T10:46:23.271Z,47.64
2023-02-25T10:49:01.208Z,47.67
2023-02-25T10:51:29.099Z,47.44
2023-02-25T10:53:58.711Z,47.48
2023-02-25T10:56:30.597Z,47.61
2023-02-25T10:59:19.893Z,47.42
2023-02-25T11:01:47.593Z,47.37
2023-02-25T11:04:19.428Z,47.14
2023-02-25T11:06:45.918Z,47.13
2023-02-25T11:09:20.955Z,46.45
2023-02-25T11:12:07.822Z,46.38
2023-02-25T11:14:36.850Z,46.03
2023-02-25T11:17:07.246Z,45.90
2023-02-25T11:19:45.229Z,46.09
2023-02-25T11:22:21.522Z,45.66
2023-02-25T11:25:03.328Z,45.35
2023-02-25T11:27:41.608Z,45.15
2023-02-25T11:30:19.601Z,44.94
2023-02-25T11:32:54.761Z,44.46
2023-02-25T11:35:29.960Z,44.27
2023-02-25T11:37:58.213Z,43.74
2023-02-25T11:40:43.477Z,43.28
2023-02-25T11:43:24.773Z,42.76
2023-02-25T11:45:57.009Z,42.09
2023-02-25T11:48:43.263Z,42.13
2023-02-25T11:51:31.218Z,41.90
2023-02-25T11:54:26.735Z,41.56
2023-02-25T11:57:11.020Z,41.06
2023-02-25T11:59:49.255Z,40.80
2023-02-25T12:02:33.279Z,40.71
2023-02-25T12:05:26.707Z,40.00
2023-02-25T12:08:32.410Z,39.58
2023-02-25T12:11:17.368Z,39.69
2023-02-25T12:14:25.816Z,39.57
2023-02-25T12:17:16.157Z,39.69
2023-02-25T12:20:16.226Z,39.15
2023-02-25T12:23:23.218Z,39.01
2023-02-25T12:26:09.376Z,39.13
2023-02-25T12:28:48.766Z,38.93
2023-02-25T12:31:30.294Z,38.73
2023-02-25T12:34:33.817Z,38.48
2023-02-25T12:37:02.807Z,38.30
2023-02-25T12:39:31.676Z,38.35
2023-02-25T12:42:21.895Z,38.26
2023-02-25T12:45:30.269Z,38.06
2023-02-25T12:48:20.929Z,38.03
2023-02-25T12:51:25.196Z,37.90
2023-02-25T12:54:33.170Z,37.55
2023-02-25T12:57:17.240Z,37.48
2023-02-25T12:59:52.620Z,37.21
2023-02-25T13:02:49.680Z,36.99
2023-02-25T13:05:15.730Z,36.89
2023-02-25T13:08:03.303Z,36.63
2023-02-25T13:11:06.776Z,36.78
2023-02-25T13:13:56.210Z,36.64
2023-02-25T13:16:24.964Z,36.56
2023-02-25T13:19:04.105Z,36.52
2023-02-25T13:21:44.992Z,36.40
2023-02-25T13:24:18.502Z,36.38
2023-02-25T13:26:56.640Z,36.20
2023-02-25T13:29:26.742Z,36.10
2023-02-25T13:32:06.683Z,36.02
2023-02-25T13:34:46.930Z,35.74
2023-02-25T13:37:59.157Z,35.65
2023-02-25T13:40:37.025Z,35.64
2023-02-25T13:43:21.154Z,35.61
2023-02-25T13:46:10.214Z,35.65
2023-02-25T13:48:48.513Z,35.39
2023-02-25T13:51:53.207Z,35.39
2023-02-25T13:54:57.965Z,35.27
2023-02-25T13:57:47.037Z,35.28
2023-02-25T14:00:34.597Z,35.43
2023-02-25T14:03:13.115Z,35.37
2023-02-25T14:06:09.885Z,35.46
2023-02-25T14:09:12.755Z,35.55
2023-02-25T14:11:47.932Z,35.54
2023-02-25T14:14:41.871Z,35.66
2023-02-25T14:17:44.893Z,35.62
2023-02-25T14:20:42.165Z,35.70
2023-02-25T14:23:16.330Z,35.40
2023-02-25T14:25:54.320Z,35.30
2023-02-25T14:28:41.091Z,35.33
2023-02-25T14:31:26.731Z,35.42
2023-02-25T14:34:02.203Z,35.45
2023-02-25T14:36:33.167Z,35.56
2023-02-25T14:39:05.276Z,35.58
2023-02-25T14:41:46.497Z,35.66
2023-02-25T14:44:23.582Z,35.56
2023-02-25T14:46:49.591Z,35.52
2023-02-25T14:49:22.613Z,35.60
2023-02-25T14:52:26.398Z,35.33
2023-02-25T14:55:13.522Z,35.44
2023-02-25T14:57:51.626Z,35.62
2023-02-25T15:00:33.069Z,35.67
2023-02-25T15:03:26.877Z,35.56
2023-02-25T15:06:12.911Z,35.67
2023-02-25T15:08:57.690Z,35.56
2023-02-25T15:11:26.813Z,35.55
2023-02-25T15:14:09.582Z,35.62
2023-02-25T15:17:07.690Z,35.55
2023-02-25T15:20:32.663Z,35.53
2023-02-25T15:23:12.987Z,35.69
2023-02-25T15:25:39.512Z,35.93
2023-02-25T15:28:29.984Z,36.01
2023-02-25T15:30:59.616Z,36.09
2023-02-25T15:33:39.006Z,36.24
2023-02-25T15:36:13.992Z,36.26
2023-02-25T15:38:57.668Z,36.21
2023-02-25T15:41:26.906Z,36.34
2023-02-25T15:43:53.658Z,36.32
2023-02-25T15:46:22.607Z,36.23
2023-02-25T15:49:06.900Z,36.24
2023-02-25T15:51:54.233Z,36.34
2023-02-25T15:54:29.530Z,36.47
2023-02-25T15:57:00.967Z,36.47
2023-02-25T15:59:45.438Z,36.41
2023-02-25T16:02:27.253Z,36.56
2023-02-25T16:04:57.000Z,36.52
2023-02-25T16:07:30.608Z,36.58
2023-02-25T16:10:00.646Z,36.51
2023-02-25T16:12:28.458Z,36.35
2023-02-25T16:14:57.510Z,36.34
2023-02-25T16:17:35.103Z,36.36
2023-02-25T16:20:22.517Z,36.35
2023-02-25T16:22:53.887Z,36.26
2023-02-25T16:25:28.518Z,36.33
2023-02-25T16:28:21.871Z,36.26
2023-02-25T16:30:57.166Z,36.29
2023-02-25T16:33:28.373Z,36.31
2023-02-25T16:36:15.125Z,36.36
2023-02-25T16:38:57.484Z,36.44
2023-02-25T16:41:33.312Z,36.43
2023-02-25T16:44:04.494Z,36.45
2023-02-25T16:46:33.879Z,36.48
2023-02-25T16:49:04.057Z,36.52
2023-02-25T16:51:33.237Z,36.46
2023-02-25T16:54:06.332Z,36.45
2023-02-25T16:56:33.111Z,36.54
2023-02-25T16:59:05.139Z,36.48
2023-02-25T17:01:33.912Z,36.41
2023-02-25T17:04:16.109Z,36.33
2023-02-25T17:06:42.688Z,36.41
2023-02-25T17:09:22.503Z,36.46
2023-02-25T17:11:54.272Z,36.58
2023-02-25T17:14:20.574Z,36.72
2023-02-25T17:16:47.548Z,36.66
2023-02-25T17:19:16.878Z,36.48
2023-02-25T17:21:49.773Z,36.53
2023-02-25T17:24:20.314Z,36.78
2023-02-25T17:26:48.955Z,36.72
2023-02-25T17:29:17.064Z,36.83
2023-02-25T17:31:52.106Z,36.87
2023-02-25T17:34:27.318Z,36.78
2023-02-25T17:36:54.872Z,36.92
2023-02-25T17:39:21.771Z,36.99
2023-02-25T17:41:48.466Z,36.87
2023-02-25T17:44:46.892Z,36.79
2023-02-25T17:47:20.893Z,37.03
2023-02-25T17:49:47.386Z,37.09
2023-02-25T17:52:25.725Z,36.86
2023-02-25T17:54:59.480Z,36.98
2023-02-25T17:57:27.522Z,37.19
2023-02-25T18:00:04.679Z,37.12
2023-02-25T18:02:39.517Z,37.11
2023-02-25T18:05:08.825Z,37.14
2023-02-25T18:07:35.011Z,37.28
2023-02-25T18:10:01.397Z,37.17
2023-02-25T18:12:33.732Z,37.29
2023-02-25T18:15:02.236Z,37.46
2023-02-25T18:17:33.185Z,37.53
2023-02-25T18:20:21.155Z,37.53
2023-02-25T18:22:48.673Z,37.19
2023-02-25T18:25:45.161Z,37.35
2023-02-25T18:28:17.066Z,37.03
2023-02-25T18:30:45.440Z,37.16
2023-02-25T18:33:11.701Z,37.34
2023-02-25T18:35:41.338Z,37.35
2023-02-25T18:38:18.753Z,37.35
2023-02-25T18:40:45.568Z,37.30
2023-02-25T18:43:20.809Z,37.44
2023-02-25T18:45:48.234Z,37.58
2023-02-25T18:48:14.708Z,37.65
2023-02-25T18:50:43.772Z,37.82
2023-02-25T18:53:22.263Z,37.66
2023-02-25T18:55:50.167Z,37.88
2023-02-25T18:58:17.866Z,37.85
2023-02-25T19:00:47.259Z,37.99
2023-02-25T19:03:45.340Z,37.98
2023-02-25T19:06:11.677Z,37.76
2023-02-25T19:08:37.903Z,37.84
2023-02-25T19:11:05.018Z,37.82
2023-02-25T19:13:40.112Z,37.76
2023-02-25T19:16:07.349Z,37.40
2023-02-25T19:18:34.248Z,37.17
2023-02-25T19:21:00.725Z,37.34
2023-02-25T19:23:28.632Z,37.48
2023-02-25T19:25:58.066Z,37.33
2023-02-25T19:28:24.533Z,37.25
2023-02-25T19:30:51.043Z,37.21
2023-02-25T19:33:17.250Z,37.44
2023-02-25T19:35:44.480Z,37.50
2023-02-25T19:38:16.976Z,37.64
2023-02-25T19:40:44.487Z,37.33
2023-02-25T19:43:12.090Z,37.20
2023-02-25T19:45:39.848Z,37.10
2023-02-25T19:48:06.736Z,37.33
2023-02-25T19:50:34.390Z,37.28
2023-02-25T19:53:02.057Z,37.35
2023-02-25T19:55:28.742Z,37.12
2023-02-25T19:57:55.440Z,37.37
2023-02-25T20:00:25.194Z,37.41
2023-02-25T20:02:53.325Z,37.23
2023-02-25T20:05:21.775Z,37.19
2023-02-25T20:07:48.234Z,37.37
2023-02-25T20:10:15.052Z,37.75
2023-02-25T20:12:43.218Z,38.11
2023-02-25T20:15:11.245Z,37.87
2023-02-25T20:17:39.475Z,37.91
2023-02-25T20:20:07.966Z,38.18
2023-02-25T20:22:35.468Z,38.19
2023-02-25T20:25:02.540Z,38.04
2023-02-25T20:27:28.917Z,38.10
2023-02-25T20:29:55.144Z,38.00
2023-02-25T20:32:21.764Z,38.16
2023-02-25T20:34:48.287Z,38.16
2023-02-25T20:37:20.563Z,37.97
2023-02-25T20:39:55.667Z,37.91
2023-02-25T20:42:26.947Z,37.99
2023-02-25T20:44:53.757Z,37.92
2023-02-25T20:47:23.104Z,37.82
2023-02-25T20:49:50.004Z,37.82
2023-02-25T20:52:16.561Z,38.01
2023-02-25T20:54:43.168Z,37.91
2023-02-25T20:57:13.387Z,37.88
2023-02-25T20:59:39.848Z,37.74
2023-02-25T21:02:07.020Z,37.73
2023-02-25T21:04:33.412Z,37.78
2023-02-25T21:06:59.695Z,37.66
2023-02-25T21:09:26.373Z,37.60
2023-02-25T21:11:52.476Z,37.62
2023-02-25T21:14:18.887Z,37.56
2023-02-25T21:16:44.996Z,37.60
2023-02-25T21:19:11.559Z,37.70
2023-02-25T21:21:37.864Z,37.32
2023-02-25T21:24:09.667Z,37.23
2023-02-25T21:26:38.711Z,37.09
2023-02-25T21:29:05.592Z,37.26
2023-02-25T21:31:32.173Z,37.06
2023-02-25T21:33:59.319Z,37.09
2023-02-25T21:36:26.311Z,37.06
2023-02-25T21:38:55.187Z,36.74
2023-02-25T21:41:22.175Z,36.53
2023-02-25T21:43:51.070Z,36.16
2023-02-25T21:46:17.204Z,36.18
2023-02-25T21:48:46.077Z,36.12
2023-02-25T21:51:15.986Z,36.10
2023-02-25T21:53:42.075Z,36.08
2023-02-25T21:56:13.214Z,36.13
2023-02-25T21:58:40.401Z,36.02
2023-02-25T22:01:14.765Z,36.13
2023-02-25T22:03:41.361Z,35.91
2023-02-25T22:06:08.375Z,35.78
2023-02-25T22:08:35.182Z,35.77
2023-02-25T22:11:01.395Z,35.59
2023-02-25T22:13:32.895Z,35.70
2023-02-25T22:16:02.077Z,35.63
2023-02-25T22:18:28.211Z,35.63
2023-02-25T22:21:13.290Z,35.62
2023-02-25T22:23:42.648Z,35.50
2023-02-25T22:26:14.314Z,35.43
2023-02-25T22:28:41.260Z,35.30
2023-02-25T22:31:16.175Z,35.42
2023-02-25T22:33:43.126Z,35.36
2023-02-25T22:36:10.664Z,35.30
2023-02-25T22:38:39.294Z,35.37
2023-02-25T22:41:10.878Z,35.37
2023-02-25T22:43:36.931Z,35.34
2023-02-25T22:46:14.872Z,35.22
2023-02-25T22:48:42.635Z,35.27
2023-02-25T22:51:09.771Z,35.25
2023-02-25T22:53:40.044Z,35.20
2023-02-25T22:56:08.654Z,35.44
2023-02-25T22:58:38.087Z,35.45
2023-02-25T23:01:04.622Z,35.53
2023-02-25T23:03:30.860Z,35.81
2023-02-25T23:05:56.940Z,35.50
2023-02-25T23:08:23.386Z,35.57
2023-02-25T23:10:49.695Z,35.52
2023-02-25T23:13:16.077Z,35.54
2023-02-25T23:15:44.903Z,35.57
2023-02-25T23:18:11.192Z,35.49
2023-02-25T23:20:37.990Z,35.30
2023-02-25T23:23:05.639Z,34.96
2023-02-25T23:25:34.625Z,34.53
2023-02-25T23:28:01.727Z,34.70
2023-02-25T23:30:28.099Z,34.94
2023-02-25T23:32:56.753Z,34.96
2023-02-25T23:35:23.258Z,35.04
2023-02-25T23:37:49.460Z,35.15
2023-02-25T23:40:16.041Z,35.23
2023-02-25T23:42:43.433Z,35.10
2023-02-25T23:45:12.203Z,34.44
2023-02-25T23:47:42.077Z,34.90
2023-02-25T23:50:14.887Z,35.16
2023-02-25T23:52:43.124Z,35.19
2023-02-25T23:55:11.284Z,35.12
2023-02-25T23:57:38.065Z,34.72
